Time;durP1;ratioP1;P1;durP2;ratioP2;P2;SDS_P1;SDS_P2;PMS_P1;PMS_P2;Temp;Humidity;BMP_temperature;BMP_pressure;BME280_temperature;BME280_humidity;BME280_pressure;Samples;Min_cycle;Max_cycle;Signal;HPM_P1;HPM_P2
2023/09/05 00:00:10;;;;;;;4.28;3.42;;;20.20;95.70;;;;;;4971390;28;20137;-80
2023/09/05 00:02:41;;;;;;;3.40;3.00;;;20.10;95.80;;;;;;4963341;28;20026;-82
2023/09/05 00:05:08;;;;;;;3.90;3.60;;;20.00;95.80;;;;;;4972566;28;20471;-80
2023/09/05 00:07:37;;;;;;;4.63;2.92;;;20.00;95.90;;;;;;4964717;28;20527;-83
2023/09/05 00:10:07;;;;;;;5.50;3.47;;;19.90;96.00;;;;;;4976707;28;20049;-80
2023/09/05 00:12:33;;;;;;;3.88;3.30;;;19.80;95.90;;;;;;4964408;28;20649;-82
2023/09/05 00:14:59;;;;;;;4.97;3.38;;;19.80;96.30;;;;;;4970444;28;20027;-82
2023/09/05 00:17:25;;;;;;;4.00;3.13;;;19.80;96.40;;;;;;4975778;28;20019;-80
2023/09/05 00:19:55;;;;;;;5.15;3.00;;;19.70;96.10;;;;;;4974174;28;20540;-80
2023/09/05 00:22:23;;;;;;;4.03;3.20;;;19.70;96.10;;;;;;4976513;28;20047;-80
2023/09/05 00:24:49;;;;;;;11.60;3.30;;;19.70;96.30;;;;;;4976232;28;20546;-79
2023/09/05 00:27:14;;;;;;;4.97;2.92;;;19.60;96.10;;;;;;4972845;28;20038;-80
2023/09/05 00:29:42;;;;;;;6.88;3.22;;;19.60;96.10;;;;;;4971411;28;20053;-80
2023/09/05 00:32:09;;;;;;;5.07;3.20;;;19.60;96.00;;;;;;4974330;28;20038;-80
2023/09/05 00:34:36;;;;;;;5.30;3.08;;;19.60;96.00;;;;;;4980487;28;20034;-81
2023/09/05 00:37:06;;;;;;;7.43;3.30;;;19.60;95.90;;;;;;5143116;23;20055;-81
2023/09/05 00:39:33;;;;;;;5.80;2.90;;;19.60;95.80;;;;;;5042178;28;20036;-81
2023/09/05 00:42:00;;;;;;;5.55;3.25;;;19.60;95.80;;;;;;5042384;28;20017;-81
2023/09/05 00:44:26;;;;;;;3.35;3.05;;;19.70;95.70;;;;;;5041287;28;20430;-80
2023/09/05 00:46:54;;;;;;;4.10;3.33;;;19.70;95.60;;;;;;5043125;28;20093;-80
2023/09/05 00:49:23;;;;;;;3.75;3.40;;;19.70;95.50;;;;;;5043564;28;20033;-80
2023/09/05 00:51:50;;;;;;;3.20;2.90;;;19.70;95.60;;;;;;5040754;28;20078;-80
2023/09/05 00:54:17;;;;;;;3.90;2.75;;;19.60;95.60;;;;;;5042319;28;20021;-80
2023/09/05 00:56:44;;;;;;;4.53;3.00;;;19.60;95.70;;;;;;5042299;28;20028;-81
2023/09/05 00:59:10;;;;;;;5.15;3.30;;;19.60;95.60;;;;;;5040859;28;20369;-80
2023/09/05 01:01:35;;;;;;;3.30;2.95;;;19.60;95.60;;;;;;5043350;28;20025;-82
2023/09/05 01:04:01;;;;;;;6.60;3.33;;;19.60;96.00;;;;;;5052592;28;20174;-81
2023/09/05 01:06:37;;;;;;;3.08;2.78;;;19.60;95.60;;;;;;5055616;28;20435;-80
2023/09/05 01:09:27;;;;;;;3.20;2.90;;;19.60;95.50;;;;;;5043203;28;20476;-80
2023/09/05 01:11:53;;;;;;;7.60;3.10;;;19.60;95.60;;;;;;5041461;28;20102;-81
2023/09/05 01:14:18;;;;;;;6.03;3.58;;;19.60;95.50;;;;;;5043546;28;20127;-81
2023/09/05 01:16:45;;;;;;;15.57;6.45;;;19.60;95.50;;;;;;5041745;28;20118;-80
2023/09/05 01:19:15;;;;;;;7.30;3.33;;;19.60;95.50;;;;;;5045859;28;20031;-80
2023/09/05 01:22:11;;;;;;;6.25;3.33;;;19.60;95.50;;;;;;5050689;28;20025;-80
2023/09/05 01:24:39;;;;;;;7.53;3.40;;;19.60;95.40;;;;;;5028746;28;20129;-81
2023/09/05 01:27:06;;;;;;;4.05;3.10;;;19.60;95.40;;;;;;5039184;28;20035;-81
2023/09/05 01:29:38;;;;;;;4.07;3.40;;;19.60;95.40;;;;;;5040770;28;20043;-80
2023/09/05 01:32:09;;;;;;;4.50;3.10;;;19.60;95.50;;;;;;5040387;28;20353;-81
2023/09/05 01:34:34;;;;;;;3.15;2.72;;;19.60;95.40;;;;;;5040692;28;20392;-81
2023/09/05 01:37:00;;;;;;;4.53;3.15;;;19.60;95.50;;;;;;5042423;28;20041;-80
2023/09/05 01:39:26;;;;;;;5.28;3.65;;;19.60;95.60;;;;;;5041524;28;20100;-80
2023/09/05 01:41:52;;;;;;;4.25;3.20;;;19.60;95.50;;;;;;5046214;28;20116;-80
2023/09/05 01:44:18;;;;;;;4.63;2.88;;;19.60;95.50;;;;;;5040378;28;20036;-81
2023/09/05 01:46:44;;;;;;;7.57;3.90;;;19.60;95.50;;;;;;5041666;28;20506;-81
2023/09/05 01:49:10;;;;;;;5.18;3.50;;;19.50;95.50;;;;;;5041379;28;20099;-81
2023/09/05 01:51:36;;;;;;;3.45;3.15;;;19.50;95.70;;;;;;5056159;28;20021;-81
2023/09/05 01:54:02;;;;;;;3.80;3.25;;;19.50;95.60;;;;;;5038987;28;20035;-80
2023/09/05 01:56:28;;;;;;;5.97;3.35;;;19.50;95.70;;;;;;5039356;28;20029;-80
2023/09/05 01:58:53;;;;;;;5.68;3.58;;;19.50;95.70;;;;;;5044046;28;20044;-80
2023/09/05 02:01:19;;;;;;;9.93;3.88;;;19.40;95.90;;;;;;5041045;28;20021;-80
2023/09/05 02:03:46;;;;;;;6.35;3.92;;;19.30;96.30;;;;;;5042027;28;20063;-80
2023/09/05 02:06:13;;;;;;;5.68;3.72;;;19.30;96.50;;;;;;5040317;28;20025;-80
2023/09/05 02:08:41;;;;;;;4.70;3.40;;;19.30;96.40;;;;;;5039167;28;20127;-81
2023/09/05 02:11:09;;;;;;;4.45;3.65;;;19.20;96.40;;;;;;5043780;28;20025;-81
2023/09/05 02:13:35;;;;;;;6.28;3.67;;;19.20;96.50;;;;;;5044205;28;20481;-81
2023/09/05 02:16:01;;;;;;;8.25;4.25;;;19.20;96.40;;;;;;5045952;28;20031;-80
2023/09/05 02:18:27;;;;;;;4.05;3.50;;;19.20;96.50;;;;;;5045744;28;20120;-81
2023/09/05 02:20:58;;;;;;;6.03;3.55;;;19.10;97.10;;;;;;5045235;28;20013;-80
2023/09/05 02:23:24;;;;;;;6.35;3.97;;;19.00;97.10;;;;;;5047353;28;20086;-81
2023/09/05 02:26:01;;;;;;;6.85;3.47;;;19.00;97.40;;;;;;5044782;28;20423;-80
2023/09/05 02:28:27;;;;;;;8.55;4.38;;;18.90;97.50;;;;;;5037433;28;20024;-80
2023/09/05 02:30:53;;;;;;;5.03;4.35;;;18.90;97.50;;;;;;5044031;28;20543;-80
2023/09/05 02:33:19;;;;;;;7.43;3.72;;;18.90;97.60;;;;;;5043624;28;20372;-81
2023/09/05 02:35:45;;;;;;;4.90;4.18;;;18.90;97.70;;;;;;5045392;28;20032;-81
2023/09/05 02:38:13;;;;;;;5.88;3.97;;;18.90;97.80;;;;;;5046440;28;20056;-81
2023/09/05 02:40:46;;;;;;;6.95;3.80;;;18.80;97.40;;;;;;5044892;28;20025;-80
2023/09/05 02:43:12;;;;;;;5.22;3.72;;;18.80;97.50;;;;;;5043191;28;20083;-81
2023/09/05 02:45:38;;;;;;;5.50;4.00;;;18.80;97.40;;;;;;5044449;28;20451;-81
2023/09/05 02:48:04;;;;;;;4.35;3.78;;;18.70;97.60;;;;;;5043068;28;20021;-81
2023/09/05 02:50:29;;;;;;;3.78;3.47;;;18.70;97.70;;;;;;5044103;28;20440;-83
2023/09/05 02:52:55;;;;;;;5.47;3.75;;;18.60;97.80;;;;;;5044721;28;20033;-83
2023/09/05 02:55:21;;;;;;;6.97;3.75;;;18.60;98.00;;;;;;5044075;28;20040;-81
2023/09/05 02:57:46;;;;;;;4.90;3.97;;;18.50;98.50;;;;;;5045004;28;20032;-83
2023/09/05 03:00:12;;;;;;;4.40;4.00;;;18.50;98.00;;;;;;5044255;28;20017;-80
2023/09/05 03:02:40;;;;;;;4.18;3.33;;;18.50;98.50;;;;;;5045989;28;20027;-81
2023/09/05 03:05:06;;;;;;;3.90;3.35;;;18.50;98.20;;;;;;5045156;28;20033;-80
2023/09/05 03:07:32;;;;;;;6.63;3.47;;;18.50;98.00;;;;;;5044153;28;20104;-80
2023/09/05 03:09:58;;;;;;;6.45;4.05;;;18.50;98.60;;;;;;5042809;28;20115;-80
2023/09/05 03:12:23;;;;;;;4.43;3.80;;;18.40;98.50;;;;;;5044467;28;20508;-81
2023/09/05 03:14:49;;;;;;;4.07;3.60;;;18.40;98.30;;;;;;5041410;28;20117;-81
2023/09/05 03:17:15;;;;;;;7.28;3.78;;;18.40;98.30;;;;;;5043865;28;20035;-81
2023/09/05 03:19:40;;;;;;;8.18;3.80;;;18.30;98.40;;;;;;5045347;28;20096;-81
2023/09/05 03:22:06;;;;;;;3.65;3.38;;;18.30;98.40;;;;;;5044027;28;20029;-80
2023/09/05 03:24:35;;;;;;;6.22;4.00;;;18.30;98.50;;;;;;5036709;28;20416;-81
2023/09/05 03:27:02;;;;;;;6.45;3.92;;;18.20;99.30;;;;;;5043525;28;20029;-81
2023/09/05 03:29:30;;;;;;;6.70;3.88;;;18.20;99.10;;;;;;5041812;28;20040;-80
2023/09/05 03:31:56;;;;;;;4.85;3.45;;;18.10;99.40;;;;;;5044050;28;20098;-81
2023/09/05 03:34:24;;;;;;;6.05;3.88;;;18.10;98.70;;;;;;5051329;28;20032;-81
2023/09/05 03:36:49;;;;;;;8.38;3.63;;;18.10;99.30;;;;;;5050344;28;20033;-81
2023/09/05 03:39:15;;;;;;;8.52;4.30;;;18.10;99.40;;;;;;5045277;28;20031;-81
2023/09/05 03:41:41;;;;;;;4.82;4.28;;;18.10;99.20;;;;;;5040297;28;20027;-83
2023/09/05 03:44:07;;;;;;;6.32;3.90;;;18.10;99.40;;;;;;5038911;28;20017;-81
2023/09/05 03:46:33;;;;;;;3.85;3.55;;;18.10;98.90;;;;;;5042514;28;20021;-81
2023/09/05 03:48:59;;;;;;;7.25;4.30;;;18.00;99.40;;;;;;5043705;28;20440;-81
2023/09/05 03:51:27;;;;;;;12.90;4.15;;;18.00;98.90;;;;;;5044697;28;20464;-81
2023/09/05 03:53:53;;;;;;;9.35;4.03;;;18.00;99.10;;;;;;5042739;28;20044;-81
2023/09/05 03:56:21;;;;;;;7.30;3.70;;;18.00;99.30;;;;;;5035924;28;20261;-83
2023/09/05 03:58:47;;;;;;;8.50;3.72;;;18.00;99.90;;;;;;5040142;28;20217;-80
2023/09/05 04:01:14;;;;;;;5.93;4.68;;;17.90;99.60;;;;;;5041522;28;20628;-81
2023/09/05 04:03:40;;;;;;;5.68;4.25;;;17.90;99.90;;;;;;5044418;28;20511;-81
2023/09/05 04:06:05;;;;;;;6.00;3.88;;;17.80;99.80;;;;;;5042405;28;20035;-81
2023/09/05 04:08:31;;;;;;;6.93;4.00;;;17.70;99.90;;;;;;5043278;28;20099;-81
2023/09/05 04:10:59;;;;;;;6.90;4.05;;;17.70;99.90;;;;;;5043984;28;20058;-81
2023/09/05 04:13:28;;;;;;;6.13;4.10;;;17.70;99.90;;;;;;5041637;28;20111;-81
2023/09/05 04:15:54;;;;;;;11.93;4.50;;;17.60;99.90;;;;;;5044065;28;20805;-80
2023/09/05 04:18:19;;;;;;;9.85;4.40;;;17.50;99.90;;;;;;5045910;28;20028;-80
2023/09/05 04:20:45;;;;;;;5.82;4.22;;;17.50;99.90;;;;;;5041658;28;20032;-81
2023/09/05 04:23:11;;;;;;;11.13;5.10;;;17.50;99.90;;;;;;5043958;28;20119;-81
2023/09/05 04:25:40;;;;;;;8.73;4.13;;;17.50;99.90;;;;;;5042788;28;20465;-80
2023/09/05 04:28:08;;;;;;;8.52;4.15;;;17.60;99.90;;;;;;5043891;28;20058;-81
2023/09/05 04:30:36;;;;;;;5.03;3.95;;;17.60;99.90;;;;;;5042059;28;20024;-81
2023/09/05 04:33:03;;;;;;;7.10;4.00;;;17.70;99.90;;;;;;5044044;28;20498;-81
2023/09/05 04:35:29;;;;;;;5.30;4.35;;;17.70;99.90;;;;;;5040442;28;20028;-81
2023/09/05 04:37:54;;;;;;;10.57;5.32;;;17.70;99.90;;;;;;5039053;28;20074;-81
2023/09/05 04:40:20;;;;;;;7.95;4.40;;;17.70;99.90;;;;;;5037634;28;20033;-82
2023/09/05 04:42:46;;;;;;;7.95;4.57;;;17.70;99.90;;;;;;5038810;28;20576;-82
2023/09/05 04:45:12;;;;;;;6.78;4.55;;;17.70;99.90;;;;;;5036370;28;20041;-81
2023/09/05 04:47:38;;;;;;;7.35;4.53;;;17.70;99.90;;;;;;5033261;28;20033;-81
2023/09/05 04:50:08;;;;;;;9.32;4.50;;;17.70;99.90;;;;;;5039313;28;20025;-81
2023/09/05 04:52:34;;;;;;;9.98;4.28;;;17.70;99.90;;;;;;5041212;28;20058;-82
2023/09/05 04:55:00;;;;;;;8.70;4.60;;;17.70;99.90;;;;;;5038418;28;20040;-80
2023/09/05 04:57:27;;;;;;;8.30;4.15;;;17.70;99.90;;;;;;5041883;28;20031;-81
2023/09/05 04:59:59;;;;;;;11.65;4.53;;;17.70;99.90;;;;;;5043051;28;20029;-81
2023/09/05 05:02:27;;;;;;;10.88;4.80;;;17.70;99.90;;;;;;5036806;28;20026;-81
2023/09/05 05:04:53;;;;;;;9.27;4.43;;;17.70;99.90;;;;;;5043072;28;20032;-80
2023/09/05 05:07:20;;;;;;;7.90;4.68;;;17.70;99.90;;;;;;5038171;28;20110;-80
2023/09/05 05:09:47;;;;;;;14.15;4.50;;;17.70;99.90;;;;;;5043684;28;20099;-81
2023/09/05 05:12:13;;;;;;;11.63;4.97;;;17.70;99.90;;;;;;5044596;28;20350;-81
2023/09/05 05:14:38;;;;;;;14.27;4.75;;;17.80;99.90;;;;;;5039726;28;20040;-80
2023/09/05 05:17:04;;;;;;;9.63;4.88;;;17.70;99.90;;;;;;5044795;28;20024;-80
2023/09/05 05:19:30;;;;;;;10.75;4.50;;;17.70;99.90;;;;;;5037240;28;20079;-80
2023/09/05 05:21:56;;;;;;;7.15;4.97;;;17.80;99.90;;;;;;5034319;28;20016;-79
2023/09/05 05:24:22;;;;;;;7.97;5.03;;;17.70;99.90;;;;;;5035137;28;20090;-80
2023/09/05 05:26:48;;;;;;;6.60;4.45;;;17.80;99.90;;;;;;5038155;28;20039;-82
2023/09/05 05:29:15;;;;;;;6.43;4.20;;;17.80;99.90;;;;;;5035981;28;20033;-83
2023/09/05 05:31:40;;;;;;;6.55;4.43;;;17.80;99.90;;;;;;5033752;28;20060;-79
2023/09/05 05:34:06;;;;;;;5.75;4.00;;;17.70;99.90;;;;;;5042678;28;20118;-80
2023/09/05 05:36:32;;;;;;;4.80;4.40;;;17.70;99.90;;;;;;5040966;28;20036;-80
2023/09/05 05:38:59;;;;;;;160.15;61.33;;;17.70;99.90;;;;;;5031993;28;20033;-81
2023/09/05 05:41:26;;;;;;;5.38;4.30;;;17.70;99.90;;;;;;5043036;28;20029;-79
2023/09/05 05:43:54;;;;;;;5.45;3.40;;;17.70;99.90;;;;;;5041152;28;20090;-79
2023/09/05 05:46:20;;;;;;;8.38;3.28;;;17.80;99.90;;;;;;5048123;28;20029;-80
2023/09/05 05:48:46;;;;;;;5.43;3.70;;;17.80;99.90;;;;;;5053498;28;20044;-80
2023/09/05 05:51:13;;;;;;;6.75;3.35;;;17.80;99.90;;;;;;5053433;28;20029;-81
2023/09/05 05:53:39;;;;;;;7.75;4.22;;;18.00;99.90;;;;;;5042254;28;20041;-81
2023/09/05 05:56:08;;;;;;;6.18;4.03;;;18.00;99.90;;;;;;5045762;28;20452;-81
2023/09/05 05:58:34;;;;;;;6.88;3.55;;;18.10;99.90;;;;;;5043433;28;20116;-82
2023/09/05 06:01:00;;;;;;;6.93;3.70;;;18.20;99.90;;;;;;5045403;28;20544;-81
2023/09/05 06:03:29;;;;;;;6.70;3.58;;;18.20;99.90;;;;;;5045598;28;20045;-82
2023/09/05 06:05:55;;;;;;;6.35;3.75;;;18.30;99.90;;;;;;5038281;28;20020;-82
2023/09/05 06:08:21;;;;;;;7.45;3.92;;;18.30;99.90;;;;;;5045451;28;20029;-82
2023/09/05 06:10:47;;;;;;;7.07;3.60;;;18.40;99.90;;;;;;5043468;28;20097;-81
2023/09/05 06:13:13;;;;;;;8.88;3.65;;;18.50;99.90;;;;;;5043589;28;20134;-81
2023/09/05 06:15:39;;;;;;;6.72;4.38;;;18.50;99.90;;;;;;5044752;28;20104;-81
2023/09/05 06:18:08;;;;;;;5.65;5.13;;;18.60;99.90;;;;;;5043711;28;20028;-82
2023/09/05 06:20:34;;;;;;;4.50;3.47;;;18.60;99.90;;;;;;5047283;28;20601;-81
2023/09/05 06:23:05;;;;;;;7.35;4.13;;;18.70;99.90;;;;;;5043878;28;20025;-82
2023/09/05 06:25:33;;;;;;;4.10;3.70;;;18.80;99.90;;;;;;5046966;28;20017;-82
2023/09/05 06:27:59;;;;;;;12.65;4.15;;;18.80;99.90;;;;;;5047081;28;20037;-81
2023/09/05 06:30:24;;;;;;;6.97;3.97;;;18.90;99.90;;;;;;5042714;28;20033;-81
2023/09/05 06:32:50;;;;;;;5.97;4.40;;;18.90;99.90;;;;;;5046607;28;20061;-81
2023/09/05 06:35:16;;;;;;;6.68;4.45;;;19.00;99.90;;;;;;5040203;28;20032;-81
2023/09/05 06:37:42;;;;;;;8.23;4.78;;;19.10;99.90;;;;;;5047368;28;20489;-81
2023/09/05 06:40:14;;;;;;;5.40;4.90;;;19.10;99.90;;;;;;5043638;28;20029;-82
2023/09/05 06:42:40;;;;;;;5.80;3.90;;;19.20;99.90;;;;;;5043344;28;20522;-82
2023/09/05 06:45:06;;;;;;;8.48;4.93;;;19.30;99.90;;;;;;5046441;28;20037;-83
2023/09/05 06:47:32;;;;;;;7.43;4.35;;;19.40;99.90;;;;;;5043657;28;20086;-82
2023/09/05 06:49:59;;;;;;;4.55;3.90;;;19.50;99.90;;;;;;5045340;28;20098;-83
2023/09/05 06:52:25;;;;;;;4.65;4.15;;;19.50;99.90;;;;;;5040909;28;20025;-83
2023/09/05 06:54:51;;;;;;;5.88;4.30;;;19.60;99.90;;;;;;5045991;28;20054;-84
2023/09/05 06:57:17;;;;;;;5.28;3.83;;;19.70;99.90;;;;;;5044062;28;20053;-83
2023/09/05 06:59:43;;;;;;;5.13;3.75;;;19.70;99.90;;;;;;5164360;23;20077;-81
2023/09/05 07:02:11;;;;;;;5.28;3.97;;;19.80;99.90;;;;;;5007702;28;20577;-82
2023/09/05 07:04:37;;;;;;;5.25;3.55;;;19.90;99.90;;;;;;5005092;28;20045;-83
2023/09/05 07:07:03;;;;;;;9.35;3.95;;;20.00;99.90;;;;;;5006040;28;20037;-82
2023/09/05 07:09:30;;;;;;;5.65;3.70;;;20.10;99.80;;;;;;5125803;22;20057;-82
2023/09/05 07:11:56;;;;;;;6.25;3.33;;;20.20;99.80;;;;;;4956125;28;20060;-81
2023/09/05 07:14:22;;;;;;;6.20;3.63;;;20.30;99.50;;;;;;4951408;28;20035;-80
2023/09/05 07:16:47;;;;;;;21.33;9.25;;;20.50;99.10;;;;;;4956708;28;20022;-79
2023/09/05 07:19:13;;;;;;;8.95;3.90;;;20.70;98.60;;;;;;4955222;28;20045;-81
2023/09/05 07:21:40;;;;;;;5.18;3.08;;;20.80;98.20;;;;;;4960971;28;20746;-82
2023/09/05 07:24:14;;;;;;;6.68;3.08;;;21.00;98.10;;;;;;4949392;28;20023;-82
2023/09/05 07:26:41;;;;;;;6.63;3.83;;;21.10;97.40;;;;;;4957421;28;20039;-82
2023/09/05 07:29:11;;;;;;;5.95;3.78;;;21.20;97.80;;;;;;4960239;28;20629;-82
2023/09/05 07:31:41;;;;;;;7.05;3.88;;;21.30;97.40;;;;;;4962975;28;20035;-82
2023/09/05 07:34:07;;;;;;;5.97;3.40;;;21.50;96.90;;;;;;4974243;28;20051;-83
2023/09/05 07:39:18;;;;;;;8.70;3.20;;;21.80;95.50;;;;;;5051463;23;20050;-83
2023/09/05 07:41:44;;;;;;;5.50;3.33;;;21.90;95.10;;;;;;4985855;28;20161;-81
2023/09/05 07:44:09;;;;;;;3.08;2.63;;;22.10;94.90;;;;;;4987159;28;20031;-83
2023/09/05 07:46:35;;;;;;;4.72;2.97;;;22.20;94.50;;;;;;4985646;28;20177;-83
2023/09/05 07:49:03;;;;;;;5.85;3.05;;;22.30;94.20;;;;;;4985305;28;21828;-83
2023/09/05 07:51:29;;;;;;;3.35;3.08;;;22.30;93.80;;;;;;4976782;28;20501;-82
2023/09/05 07:54:03;;;;;;;4.35;2.90;;;22.40;93.80;;;;;;4983576;28;20079;-82
2023/09/05 07:56:29;;;;;;;105.72;45.55;;;22.40;93.60;;;;;;4985324;28;20487;-80
2023/09/05 07:58:55;;;;;;;14.40;7.25;;;22.50;93.90;;;;;;4985000;28;20034;-80
2023/09/05 08:01:23;;;;;;;73.57;29.30;;;22.60;93.40;;;;;;4984085;28;20023;-82
2023/09/05 08:03:50;;;;;;;3.78;3.33;;;22.70;93.50;;;;;;4986133;28;20860;-82
2023/09/05 08:06:16;;;;;;;3.35;2.95;;;22.80;94.10;;;;;;4983679;28;20478;-81
2023/09/05 08:08:41;;;;;;;3.38;3.15;;;22.90;93.10;;;;;;4986031;28;20034;-81
2023/09/05 08:11:07;;;;;;;3.50;3.03;;;23.00;92.90;;;;;;4983928;28;20026;-82
2023/09/05 08:13:32;;;;;;;3.67;3.30;;;23.10;93.20;;;;;;4982841;28;20033;-81
2023/09/05 08:15:58;;;;;;;5.85;3.30;;;23.20;93.20;;;;;;4982827;28;20084;-80
2023/09/05 08:18:28;;;;;;;3.85;3.35;;;23.30;92.90;;;;;;4984183;28;20132;-81
2023/09/05 08:20:56;;;;;;;5.28;3.20;;;23.40;92.90;;;;;;4986087;28;20343;-83
2023/09/05 08:23:22;;;;;;;7.03;3.53;;;23.40;92.70;;;;;;4984492;28;20026;-82
2023/09/05 08:25:51;;;;;;;3.65;2.97;;;23.60;92.50;;;;;;4982685;28;20085;-83
2023/09/05 08:28:18;;;;;;;13.10;3.80;;;23.80;93.10;;;;;;4985235;28;20034;-82
2023/09/05 08:30:44;;;;;;;5.78;3.35;;;23.90;92.40;;;;;;4982102;28;20041;-81
2023/09/05 08:33:10;;;;;;;5.50;3.55;;;24.10;92.00;;;;;;4986641;28;20038;-84
2023/09/05 08:35:37;;;;;;;14.90;7.50;;;24.30;90.20;;;;;;4984010;28;20034;-84
2023/09/05 08:38:04;;;;;;;4.53;3.00;;;24.50;90.40;;;;;;4984216;28;20030;-82
2023/09/05 08:40:33;;;;;;;5.32;3.50;;;24.60;88.40;;;;;;4985013;28;20018;-82
2023/09/05 08:42:59;;;;;;;3.67;3.38;;;24.80;88.40;;;;;;4985065;28;20133;-82
2023/09/05 08:45:26;;;;;;;3.17;2.88;;;24.80;85.70;;;;;;4985259;28;20426;-82
2023/09/05 08:47:52;;;;;;;6.97;3.35;;;25.00;88.00;;;;;;4983057;28;20022;-83
2023/09/05 08:50:18;;;;;;;3.63;3.33;;;25.10;85.90;;;;;;4983632;28;20403;-82
2023/09/05 08:52:46;;;;;;;7.38;3.55;;;25.30;85.10;;;;;;4981175;28;20022;-82
2023/09/05 08:55:13;;;;;;;4.93;3.58;;;25.40;84.30;;;;;;4976665;28;20038;-81
2023/09/05 08:57:44;;;;;;;5.00;3.22;;;25.60;83.70;;;;;;4983084;28;20062;-82
2023/09/05 09:00:10;;;;;;;3.10;2.90;;;25.80;83.20;;;;;;4983823;28;20402;-84
2023/09/05 09:02:35;;;;;;;3.08;2.83;;;25.90;79.50;;;;;;4984106;28;20014;-84
2023/09/05 09:05:02;;;;;;;5.07;2.53;;;26.30;80.50;;;;;;4975973;28;20027;-83
2023/09/05 09:07:29;;;;;;;20.40;4.70;;;26.50;76.00;;;;;;4982516;28;20379;-86
2023/09/05 09:09:55;;;;;;;6.30;2.60;;;26.80;75.50;;;;;;4983451;28;20026;-86
2023/09/05 09:12:30;;;;;;;3.78;3.47;;;26.90;74.50;;;;;;4980337;28;20026;-84
2023/09/05 09:14:56;;;;;;;7.50;3.45;;;27.20;73.90;;;;;;4980350;28;20748;-83
2023/09/05 09:17:25;;;;;;;2.63;2.40;;;27.50;74.40;;;;;;4983930;28;20033;-87
2023/09/05 09:19:54;;;;;;;3.58;3.15;;;27.50;72.80;;;;;;4983049;28;20023;-83
2023/09/05 09:22:24;;;;;;;4.32;3.22;;;27.90;74.10;;;;;;4997699;28;20030;-87
2023/09/05 09:24:50;;;;;;;8.82;3.80;;;28.10;76.60;;;;;;4980625;28;20589;-85
2023/09/05 09:27:22;;;;;;;3.58;3.28;;;28.10;77.20;;;;;;4981683;28;20025;-84
2023/09/05 09:29:56;;;;;;;3.37;3.17;;;28.40;74.30;;;;;;4979728;28;20080;-83
2023/09/05 09:32:24;;;;;;;5.03;3.90;;;28.80;74.90;;;;;;4982727;28;20043;-83
2023/09/05 09:34:50;;;;;;;28.95;14.90;;;29.10;73.50;;;;;;4984100;28;20058;-84
2023/09/05 09:37:26;;;;;;;5.70;4.07;;;29.30;73.10;;;;;;4986748;28;20022;-84
2023/09/05 09:39:59;;;;;;;3.65;3.30;;;29.30;74.70;;;;;;4978481;28;20040;-82
2023/09/05 09:42:24;;;;;;;;;;;29.60;75.30;;;;;;4977325;28;20033;-83
2023/09/05 09:44:52;;;;;;;3.60;3.30;;;29.50;72.30;;;;;;4975887;28;19910;-85
2023/09/05 09:47:18;;;;;;;3.42;3.13;;;29.50;71.90;;;;;;4981710;28;20093;-84
2023/09/05 09:49:48;;;;;;;3.13;2.92;;;29.60;72.10;;;;;;4979407;28;20032;-82
2023/09/05 09:52:16;;;;;;;4.50;3.00;;;29.70;71.50;;;;;;4981528;28;20050;-83
2023/09/05 09:54:44;;;;;;;10.35;3.22;;;29.80;71.40;;;;;;4975164;28;20138;-83
2023/09/05 09:57:15;;;;;;;3.88;3.25;;;29.90;70.40;;;;;;4966457;28;20082;-82
2023/09/05 09:59:48;;;;;;;5.90;3.47;;;30.00;69.00;;;;;;4979330;28;20367;-82
2023/09/05 10:02:15;;;;;;;4.03;3.42;;;30.10;71.40;;;;;;4962270;28;20147;-84
2023/09/05 10:04:42;;;;;;;84.47;48.95;;;30.30;69.80;;;;;;4976814;28;20030;-84
2023/09/05 10:07:14;;;;;;;15.93;6.95;;;30.50;68.60;;;;;;4989653;28;20483;-85
2023/09/05 10:09:43;;;;;;;2.85;2.63;;;30.30;67.60;;;;;;4968761;28;20041;-83
2023/09/05 10:12:09;;;;;;;2.60;2.40;;;30.10;67.80;;;;;;4978152;28;20146;-82
2023/09/05 10:14:38;;;;;;;7.25;3.17;;;30.20;67.30;;;;;;4980347;28;20034;-81
2023/09/05 10:17:04;;;;;;;3.00;2.80;;;30.20;65.20;;;;;;4981239;28;20025;-84
2023/09/05 10:19:31;;;;;;;3.30;3.03;;;30.10;64.90;;;;;;4979888;28;20149;-84
2023/09/05 10:22:00;;;;;;;3.97;3.50;;;30.20;70.80;;;;;;4981286;28;20129;-84
2023/09/05 10:24:29;;;;;;;5.28;3.08;;;30.30;72.00;;;;;;4979347;28;20424;-84
2023/09/05 10:26:55;;;;;;;3.92;3.63;;;30.30;68.60;;;;;;4981957;28;20088;-84
2023/09/05 10:29:44;;;;;;;3.25;3.05;;;30.50;67.40;;;;;;4980069;28;20198;-83
2023/09/05 10:32:22;;;;;;;3.53;2.45;;;30.70;63.30;;;;;;4983505;28;20478;-83
2023/09/05 10:34:47;;;;;;;4.20;2.40;;;31.00;62.80;;;;;;4982107;28;20038;-83
2023/09/05 10:37:13;;;;;;;5.22;2.78;;;31.10;60.60;;;;;;4973804;28;20557;-85
2023/09/05 10:39:49;;;;;;;4.57;3.05;;;31.30;58.80;;;;;;4991584;28;20455;-82
2023/09/05 10:42:16;;;;;;;2.40;2.30;;;31.50;60.50;;;;;;4991395;28;20494;-84
2023/09/05 10:44:45;;;;;;;2.92;2.63;;;31.40;58.20;;;;;;4980538;28;20677;-82
2023/09/05 10:47:33;;;;;;;3.00;2.80;;;31.30;58.70;;;;;;4982517;28;20026;-84
2023/09/05 10:50:00;;;;;;;4.00;2.80;;;31.20;59.10;;;;;;4987624;28;20112;-87
2023/09/05 10:52:32;;;;;;;5.72;3.28;;;31.20;58.70;;;;;;4982263;28;20031;-82
2023/09/05 10:54:59;;;;;;;3.10;2.80;;;31.30;58.50;;;;;;4983569;28;20034;-82
2023/09/05 10:57:38;;;;;;;2.92;2.70;;;31.40;59.10;;;;;;4982595;28;20482;-82
2023/09/05 11:00:29;;;;;;;10.82;5.95;;;31.70;58.50;;;;;;4982944;28;20030;-84
2023/09/05 11:02:56;;;;;;;3.70;3.33;;;31.90;57.90;;;;;;4976238;28;20018;-82
2023/09/05 11:05:26;;;;;;;3.58;3.00;;;32.10;57.50;;;;;;4984948;28;20026;-82
2023/09/05 11:07:54;;;;;;;3.33;3.03;;;32.20;57.50;;;;;;4984070;28;20030;-82
2023/09/05 11:10:34;;;;;;;3.03;2.83;;;32.30;57.20;;;;;;4985913;28;20033;-81
2023/09/05 11:13:14;;;;;;;2.80;2.60;;;32.00;56.90;;;;;;4984938;28;20097;-85
2023/09/05 11:15:44;;;;;;;4.88;3.13;;;31.80;56.80;;;;;;4985016;28;20046;-86
2023/09/05 11:18:15;;;;;;;3.20;3.00;;;31.70;57.20;;;;;;4979043;28;20343;-85
2023/09/05 11:20:41;;;;;;;3.17;2.55;;;31.70;57.40;;;;;;4984596;28;20487;-85
2023/09/05 11:23:18;;;;;;;3.50;2.80;;;31.90;57.50;;;;;;4982276;28;20473;-82
2023/09/05 11:25:50;;;;;;;6.78;2.70;;;31.80;57.50;;;;;;4980551;28;20057;-80
2023/09/05 11:28:16;;;;;;;2.78;2.58;;;31.90;56.60;;;;;;4986168;28;20109;-85
2023/09/05 11:30:44;;;;;;;3.58;2.33;;;31.80;56.50;;;;;;4981347;28;20031;-84
2023/09/05 11:33:14;;;;;;;3.20;2.90;;;32.00;56.90;;;;;;4986952;28;20026;-85
2023/09/05 11:35:41;;;;;;;3.38;2.47;;;32.20;56.50;;;;;;4987917;28;20042;-84
2023/09/05 11:38:08;;;;;;;3.33;3.03;;;32.00;57.40;;;;;;4997401;28;20038;-85
2023/09/05 11:40:34;;;;;;;5.22;2.90;;;32.10;56.50;;;;;;4985015;28;20240;-83
2023/09/05 11:43:07;;;;;;;3.40;3.10;;;32.10;56.60;;;;;;4983607;28;20113;-81
2023/09/05 11:45:34;;;;;;;3.85;3.38;;;32.30;56.50;;;;;;4985490;28;20129;-83
2023/09/05 11:48:02;;;;;;;4.13;3.13;;;32.50;57.60;;;;;;4986157;28;20547;-83
2023/09/05 11:50:28;;;;;;;3.00;2.80;;;32.50;55.80;;;;;;4985497;28;20023;-86
2023/09/05 11:52:54;;;;;;;3.58;2.55;;;32.40;55.30;;;;;;4987074;28;20105;-84
2023/09/05 11:55:24;;;;;;;2.75;2.55;;;32.50;55.20;;;;;;4983597;28;20124;-87
2023/09/05 11:57:54;;;;;;;45.38;23.52;;;32.60;55.90;;;;;;4986758;28;20062;-88
2023/09/05 12:00:22;;;;;;;4.88;3.03;;;32.70;56.20;;;;;;4987745;28;20038;-83
2023/09/05 12:02:48;;;;;;;3.28;2.95;;;32.60;55.10;;;;;;4982448;28;20122;-84
2023/09/05 12:05:19;;;;;;;5.65;3.30;;;32.70;54.70;;;;;;4986767;28;20101;-83
2023/09/05 12:07:54;;;;;;;5.05;2.75;;;32.70;56.00;;;;;;4986122;28;20033;-83
2023/09/05 12:10:21;;;;;;;4.63;2.50;;;32.90;55.10;;;;;;4984701;28;20024;-82
2023/09/05 12:13:02;;;;;;;3.35;3.08;;;32.90;56.10;;;;;;4972008;28;20073;-84
2023/09/05 12:15:35;;;;;;;6.97;3.22;;;33.10;55.20;;;;;;4979114;28;20038;-83
2023/09/05 12:18:05;;;;;;;4.85;3.58;;;33.50;55.40;;;;;;4986471;28;20088;-84
2023/09/05 12:20:33;;;;;;;3.67;3.45;;;33.50;57.30;;;;;;4982081;28;20053;-84
2023/09/05 12:22:59;;;;;;;6.35;3.33;;;33.50;56.30;;;;;;4985668;28;20022;-81
2023/09/05 12:25:27;;;;;;;3.03;2.83;;;33.60;54.60;;;;;;4983374;28;20018;-83
2023/09/05 12:27:55;;;;;;;3.35;3.25;;;33.50;55.90;;;;;;4978643;28;20034;-82
2023/09/05 12:30:37;;;;;;;3.53;3.22;;;33.60;55.90;;;;;;4986174;28;20035;-84
2023/09/05 12:33:04;;;;;;;16.40;3.97;;;33.50;54.20;;;;;;4981270;28;20030;-83
2023/09/05 12:35:32;;;;;;;5.53;3.40;;;33.50;54.80;;;;;;4969800;28;20046;-83
2023/09/05 12:38:02;;;;;;;3.38;3.17;;;33.50;54.80;;;;;;4970442;28;20031;-83
2023/09/05 12:40:28;;;;;;;2.85;2.75;;;33.60;54.50;;;;;;4983481;28;20026;-83
2023/09/05 12:42:54;;;;;;;3.60;3.20;;;33.50;54.90;;;;;;4982315;28;20038;-84
2023/09/05 12:45:20;;;;;;;3.22;3.03;;;33.50;56.10;;;;;;4979107;28;20662;-84
2023/09/05 12:47:51;;;;;;;3.65;3.42;;;33.50;57.30;;;;;;4983117;28;20279;-82
2023/09/05 12:50:21;;;;;;;3.08;2.90;;;33.90;57.90;;;;;;4978451;28;20037;-83